createdAt,value
2023-04-26T00:00:09.604Z,6.95
2023-04-26T00:03:00.236Z,6.94
2023-04-26T00:05:29.262Z,6.93
2023-04-26T00:07:57.706Z,6.93
2023-04-26T00:10:26.171Z,6.93
2023-04-26T00:12:54.529Z,6.91
2023-04-26T00:15:23.013Z,6.90
2023-04-26T00:17:51.510Z,6.87
2023-04-26T00:20:20.091Z,6.87
2023-04-26T00:22:48.473Z,6.87
2023-04-26T00:25:16.890Z,6.85
2023-04-26T00:27:47.184Z,6.82
2023-04-26T00:30:16.341Z,6.78
2023-04-26T00:32:46.480Z,6.74
2023-04-26T00:35:14.853Z,6.68
2023-04-26T00:37:43.115Z,6.60
2023-04-26T00:40:15.570Z,6.49
2023-04-26T00:42:43.912Z,6.42
2023-04-26T00:45:12.626Z,6.38
2023-04-26T00:47:41.410Z,6.37
2023-04-26T00:50:10.619Z,6.32
2023-04-26T00:52:40.501Z,6.29
2023-04-26T00:55:10.257Z,6.25
2023-04-26T00:57:40.274Z,6.21
2023-04-26T01:00:11.253Z,6.19
2023-04-26T01:02:39.783Z,6.21
2023-04-26T01:05:09.574Z,6.20
2023-04-26T01:07:38.341Z,6.20
2023-04-26T01:10:09.499Z,6.16
2023-04-26T01:12:38.695Z,6.11
2023-04-26T01:15:08.985Z,6.07
2023-04-26T01:17:37.927Z,6.05
2023-04-26T01:20:09.857Z,6.01
2023-04-26T01:22:38.283Z,5.99
2023-04-26T01:25:11.593Z,5.96
2023-04-26T01:27:39.948Z,5.92
2023-04-26T01:30:10.173Z,5.88
2023-04-26T01:32:38.598Z,5.86
2023-04-26T01:35:07.591Z,5.83
2023-04-26T01:37:35.953Z,5.82
2023-04-26T01:40:06.558Z,5.83
2023-04-26T01:42:34.931Z,5.81
2023-04-26T01:45:03.755Z,5.83
2023-04-26T01:47:32.284Z,5.83
2023-04-26T01:50:00.788Z,5.82
2023-04-26T01:52:29.224Z,5.81
2023-04-26T01:54:57.537Z,5.80
2023-04-26T01:57:25.822Z,5.82
2023-04-26T01:59:55.380Z,5.81
2023-04-26T02:02:23.868Z,5.80
2023-04-26T02:04:52.216Z,5.79
2023-04-26T02:07:20.575Z,5.79
2023-04-26T02:09:48.884Z,5.79
2023-04-26T02:12:17.282Z,5.79
2023-04-26T02:14:45.733Z,5.79
2023-04-26T02:17:15.805Z,5.77
2023-04-26T02:19:44.159Z,5.76
2023-04-26T02:22:12.737Z,5.76
2023-04-26T02:24:41.376Z,5.77
2023-04-26T02:27:09.751Z,5.75
2023-04-26T02:29:44.409Z,5.72
2023-04-26T02:32:13.936Z,5.70
2023-04-26T02:34:42.595Z,5.70
2023-04-26T02:37:10.939Z,5.70
2023-04-26T02:39:39.279Z,5.71
2023-04-26T02:42:10.381Z,5.71
2023-04-26T02:44:39.254Z,5.72
2023-04-26T02:47:07.916Z,5.73
2023-04-26T02:49:36.571Z,5.74
2023-04-26T02:52:05.278Z,5.76
2023-04-26T02:54:33.622Z,5.79
2023-04-26T02:57:01.995Z,5.83
2023-04-26T02:59:30.392Z,5.85
2023-04-26T03:01:58.801Z,5.88
2023-04-26T03:04:28.218Z,5.90
2023-04-26T03:06:56.563Z,5.91
2023-04-26T03:09:25.423Z,5.93
2023-04-26T03:11:53.732Z,5.96
2023-04-26T03:14:24.932Z,5.99
2023-04-26T03:16:54.318Z,6.01
2023-04-26T03:19:22.667Z,6.03
2023-04-26T03:21:51.070Z,6.05
2023-04-26T03:24:19.770Z,6.06
2023-04-26T03:26:48.175Z,6.07
2023-04-26T03:29:18.094Z,6.06
2023-04-26T03:31:46.800Z,6.04
2023-04-26T03:34:15.264Z,6.05
2023-04-26T03:36:43.647Z,6.04
2023-04-26T03:39:12.653Z,6.05
2023-04-26T03:41:40.988Z,6.03
2023-04-26T03:44:09.242Z,6.03
2023-04-26T03:46:37.682Z,6.03
2023-04-26T03:49:05.975Z,6.03
2023-04-26T03:51:34.465Z,6.01
2023-04-26T03:54:03.497Z,5.98
2023-04-26T03:56:31.821Z,5.96
2023-04-26T03:59:00.134Z,5.92
2023-04-26T04:01:28.782Z,5.89
2023-04-26T04:03:57.353Z,5.87
2023-04-26T04:06:25.891Z,5.82
2023-04-26T04:08:54.837Z,5.77
2023-04-26T04:11:23.328Z,5.73
2023-04-26T04:13:51.662Z,5.67
2023-04-26T04:16:20.142Z,5.62
2023-04-26T04:18:48.561Z,5.58
2023-04-26T04:21:16.931Z,5.56
2023-04-26T04:23:45.303Z,5.57
2023-04-26T04:26:13.732Z,5.57
2023-04-26T04:28:42.325Z,5.58
2023-04-26T04:31:11.049Z,5.60
2023-04-26T04:33:39.537Z,5.58
2023-04-26T04:36:08.974Z,5.59
2023-04-26T04:38:37.741Z,5.60
2023-04-26T04:41:07.869Z,5.60
2023-04-26T04:43:36.604Z,5.61
2023-04-26T04:46:04.968Z,5.66
2023-04-26T04:48:33.254Z,5.70
2023-04-26T04:51:02.383Z,5.73
2023-04-26T04:53:31.259Z,5.76
2023-04-26T04:55:59.535Z,5.79
2023-04-26T04:58:27.884Z,5.79
2023-04-26T05:00:56.380Z,5.80
2023-04-26T05:03:25.191Z,5.81
2023-04-26T05:05:53.488Z,5.83
2023-04-26T05:08:21.952Z,5.86
2023-04-26T05:10:51.095Z,5.90
2023-04-26T05:13:19.381Z,5.94
2023-04-26T05:15:47.721Z,5.93
2023-04-26T05:18:15.953Z,5.94
2023-04-26T05:20:44.293Z,5.93
2023-04-26T05:23:12.826Z,5.92
2023-04-26T05:25:41.309Z,5.91
2023-04-26T05:28:12.075Z,5.93
2023-04-26T05:30:40.601Z,5.97
2023-04-26T05:33:09.032Z,5.99
2023-04-26T05:35:37.307Z,5.96
2023-04-26T05:38:06.135Z,5.89
2023-04-26T05:40:34.540Z,5.83
2023-04-26T05:43:03.232Z,5.80
2023-04-26T05:45:32.040Z,5.74
2023-04-26T05:48:00.729Z,5.65
2023-04-26T05:50:29.161Z,5.59
2023-04-26T05:52:57.882Z,5.56
2023-04-26T05:55:26.538Z,5.53
2023-04-26T05:57:54.776Z,5.51
2023-04-26T06:00:24.829Z,5.50
2023-04-26T06:02:53.643Z,5.50
2023-04-26T06:05:22.906Z,5.48
2023-04-26T06:07:51.950Z,5.47
2023-04-26T06:10:20.913Z,5.47
2023-04-26T06:12:49.495Z,5.50
2023-04-26T06:15:18.549Z,5.53
2023-04-26T06:17:47.669Z,5.56
2023-04-26T06:20:16.383Z,5.60
2023-04-26T06:22:45.401Z,5.69
2023-04-26T06:25:14.282Z,5.79
2023-04-26T06:27:43.347Z,5.89
2023-04-26T06:30:13.649Z,5.97
2023-04-26T06:32:42.485Z,6.09
2023-04-26T06:35:11.034Z,6.21
2023-04-26T06:37:39.478Z,6.35
2023-04-26T06:40:10.628Z,6.47
2023-04-26T06:42:39.176Z,6.60
2023-04-26T06:45:10.838Z,6.64
2023-04-26T06:47:39.314Z,6.66
2023-04-26T06:50:10.715Z,6.72
2023-04-26T06:52:39.168Z,6.78
2023-04-26T06:55:09.975Z,6.85
2023-04-26T06:57:38.965Z,6.94
2023-04-26T07:00:10.548Z,7.02
2023-04-26T07:02:38.989Z,7.10
2023-04-26T07:05:09.066Z,7.19
2023-04-26T07:07:37.508Z,7.29
2023-04-26T07:10:08.867Z,7.36
2023-04-26T07:12:37.210Z,7.37
2023-04-26T07:15:08.084Z,7.46
2023-04-26T07:17:36.505Z,7.60
2023-04-26T07:20:06.822Z,7.77
2023-04-26T07:22:35.238Z,7.93
2023-04-26T07:25:04.576Z,8.03
2023-04-26T07:27:33.073Z,8.12
2023-04-26T07:30:01.436Z,8.23
2023-04-26T07:32:29.979Z,8.34
2023-04-26T07:34:58.670Z,8.39
2023-04-26T07:37:27.079Z,8.34
2023-04-26T07:39:55.653Z,8.37
2023-04-26T07:42:24.835Z,8.42
2023-04-26T07:44:53.127Z,8.49
2023-04-26T07:47:21.382Z,8.52
2023-04-26T07:49:54.218Z,8.57
2023-04-26T07:52:22.526Z,8.68
2023-04-26T07:54:51.141Z,8.82
2023-04-26T07:57:20.764Z,8.98
2023-04-26T07:59:49.623Z,9.11
2023-04-26T08:02:20.381Z,9.15
2023-04-26T08:04:52.031Z,9.17
2023-04-26T08:07:20.997Z,9.14
2023-04-26T08:09:49.254Z,8.96
2023-04-26T08:12:17.593Z,8.82
2023-04-26T08:14:46.170Z,8.74
2023-04-26T08:17:14.493Z,8.81
2023-04-26T08:19:42.838Z,8.84
2023-04-26T08:22:11.186Z,8.80
2023-04-26T08:24:39.433Z,8.74
2023-04-26T08:27:07.821Z,8.71
2023-04-26T08:29:36.621Z,8.67
2023-04-26T08:32:05.247Z,8.60
2023-04-26T08:34:35.921Z,8.61
2023-04-26T08:37:04.850Z,8.67
2023-04-26T08:39:33.826Z,8.66
2023-04-26T08:42:10.157Z,8.69
2023-04-26T08:44:38.530Z,8.81
2023-04-26T08:47:13.682Z,8.93
2023-04-26T08:49:43.996Z,8.99
2023-04-26T08:52:15.582Z,8.94
2023-04-26T08:54:44.295Z,8.88
2023-04-26T08:57:13.234Z,8.77
2023-04-26T08:59:43.464Z,8.67
2023-04-26T09:02:14.341Z,8.61
2023-04-26T09:04:43.184Z,8.51
2023-04-26T09:07:15.993Z,8.43
2023-04-26T09:09:47.781Z,8.54
2023-04-26T09:12:20.368Z,8.77
2023-04-26T09:14:48.958Z,8.84
2023-04-26T09:17:28.127Z,8.87
2023-04-26T09:19:56.951Z,8.92
2023-04-26T09:22:35.916Z,8.93
2023-04-26T09:25:06.617Z,8.85
2023-04-26T09:27:37.468Z,8.75
2023-04-26T09:30:09.749Z,8.72
2023-04-26T09:32:46.258Z,8.71
2023-04-26T09:35:30.205Z,8.69
2023-04-26T09:38:05.978Z,8.57
2023-04-26T09:40:38.589Z,8.45
2023-04-26T09:43:08.693Z,8.34
2023-04-26T09:45:46.048Z,8.28
2023-04-26T09:48:16.290Z,8.23
2023-04-26T09:50:45.784Z,8.23
2023-04-26T09:53:26.448Z,8.23
2023-04-26T09:55:54.885Z,8.27
2023-04-26T09:58:23.623Z,8.34
2023-04-26T10:00:54.003Z,8.41
2023-04-26T10:03:24.885Z,8.45
2023-04-26T10:05:53.612Z,8.45
2023-04-26T10:08:21.992Z,8.45
2023-04-26T10:10:51.683Z,8.47
2023-04-26T10:13:20.210Z,8.51
2023-04-26T10:15:48.928Z,8.51
2023-04-26T10:18:17.626Z,8.51
2023-04-26T10:20:51.110Z,8.56
2023-04-26T10:23:21.505Z,8.65
2023-04-26T10:25:49.922Z,8.69
2023-04-26T10:28:19.562Z,8.67
2023-04-26T10:30:58.230Z,8.63
2023-04-26T10:33:26.742Z,8.54
2023-04-26T10:36:12.746Z,8.47
2023-04-26T10:38:42.884Z,8.43
2023-04-26T10:41:31.651Z,8.43
2023-04-26T10:44:23.145Z,8.43
2023-04-26T10:46:52.048Z,8.44
2023-04-26T10:49:24.311Z,8.44
2023-04-26T10:52:11.833Z,8.44
2023-04-26T10:54:48.427Z,8.46
2023-04-26T10:57:17.230Z,8.46
2023-04-26T11:00:20.344Z,8.50
2023-04-26T11:02:55.732Z,8.51
2023-04-26T11:05:42.135Z,8.55
2023-04-26T11:08:17.438Z,8.62
2023-04-26T11:10:50.895Z,8.66
2023-04-26T11:13:20.248Z,8.67
2023-04-26T11:15:53.314Z,8.71
2023-04-26T11:18:21.999Z,8.80
2023-04-26T11:20:50.558Z,8.90
2023-04-26T11:23:19.695Z,8.97
2023-04-26T11:25:48.404Z,9.00
2023-04-26T11:28:18.310Z,9.00
2023-04-26T11:30:46.749Z,8.93
2023-04-26T11:33:19.519Z,8.85
2023-04-26T11:35:47.937Z,8.74
2023-04-26T11:38:17.100Z,8.62
2023-04-26T11:40:45.851Z,8.56
2023-04-26T11:43:14.932Z,8.55
2023-04-26T11:45:43.308Z,8.56
2023-04-26T11:48:13.397Z,8.58
2023-04-26T11:50:42.059Z,8.59
2023-04-26T11:53:10.411Z,8.84
2023-04-26T11:55:40.328Z,9.34
2023-04-26T11:58:13.457Z,9.86
2023-04-26T12:00:58.425Z,10.16
2023-04-26T12:03:32.789Z,10.23
2023-04-26T12:06:01.827Z,10.14
2023-04-26T12:08:30.388Z,9.92
2023-04-26T12:11:02.405Z,9.65
2023-04-26T12:13:32.030Z,9.43
2023-04-26T12:16:00.453Z,9.31
2023-04-26T12:18:32.657Z,9.23
2023-04-26T12:21:01.271Z,9.14
2023-04-26T12:23:38.744Z,9.07
2023-04-26T12:26:10.103Z,9.03
2023-04-26T12:28:38.541Z,9.03
2023-04-26T12:31:07.765Z,9.07
2023-04-26T12:33:36.389Z,9.10
2023-04-26T12:36:09.469Z,9.16
2023-04-26T12:38:37.859Z,9.16
2023-04-26T12:41:06.581Z,9.12
2023-04-26T12:43:35.199Z,9.01
2023-04-26T12:46:03.754Z,8.96
2023-04-26T12:48:32.059Z,8.92
2023-04-26T12:51:00.542Z,8.87
2023-04-26T12:53:28.881Z,8.85
2023-04-26T12:55:57.164Z,8.80
2023-04-26T12:58:25.969Z,8.77
2023-04-26T13:00:54.762Z,8.79
2023-04-26T13:03:23.267Z,8.83
2023-04-26T13:05:52.249Z,8.90
2023-04-26T13:08:22.076Z,8.95
2023-04-26T13:10:50.687Z,9.02
2023-04-26T13:13:21.974Z,9.09
2023-04-26T13:15:53.211Z,9.11
2023-04-26T13:18:21.511Z,9.09
2023-04-26T13:20:49.843Z,9.04
2023-04-26T13:23:18.484Z,8.98
2023-04-26T13:25:47.525Z,8.91
2023-04-26T13:28:16.202Z,8.83
2023-04-26T13:30:45.486Z,8.79
2023-04-26T13:33:13.803Z,8.81
2023-04-26T13:35:42.242Z,8.89
2023-04-26T13:38:11.619Z,8.95
2023-04-26T13:40:40.001Z,8.96
2023-04-26T13:43:08.318Z,8.93
2023-04-26T13:45:36.884Z,8.93
2023-04-26T13:48:05.902Z,8.94
2023-04-26T13:50:36.704Z,8.95
2023-04-26T13:53:05.183Z,8.95
2023-04-26T13:55:33.562Z,8.90
2023-04-26T13:58:02.027Z,8.85
2023-04-26T14:00:30.877Z,8.81
2023-04-26T14:02:59.470Z,8.78
2023-04-26T14:05:27.916Z,8.79
2023-04-26T14:07:56.618Z,8.79
2023-04-26T14:10:25.691Z,8.81
2023-04-26T14:12:55.739Z,8.82
2023-04-26T14:15:25.299Z,8.87
2023-04-26T14:17:53.626Z,8.91
2023-04-26T14:20:21.912Z,8.94
2023-04-26T14:22:50.724Z,8.95
2023-04-26T14:25:19.435Z,8.91
2023-04-26T14:27:48.221Z,8.89
2023-04-26T14:30:16.968Z,8.88
2023-04-26T14:32:46.162Z,8.88
2023-04-26T14:35:14.619Z,8.87
2023-04-26T14:37:43.053Z,8.81
2023-04-26T14:40:14.217Z,8.75
2023-04-26T14:42:45.565Z,8.70
2023-04-26T14:45:14.198Z,8.68
2023-04-26T14:47:42.619Z,8.69
2023-04-26T14:50:13.587Z,8.69
2023-04-26T14:52:42.161Z,8.69
2023-04-26T14:55:10.717Z,8.67
2023-04-26T14:57:42.088Z,8.65
2023-04-26T15:00:14.771Z,8.62
2023-04-26T15:02:43.676Z,8.61
2023-04-26T15:05:12.836Z,8.56
2023-04-26T15:07:41.296Z,8.51
2023-04-26T15:10:10.743Z,8.46
2023-04-26T15:12:39.222Z,8.44
2023-04-26T15:15:09.530Z,8.47
2023-04-26T15:17:38.236Z,8.49
2023-04-26T15:20:09.045Z,8.48
2023-04-26T15:22:38.971Z,8.49
2023-04-26T15:25:12.574Z,8.51
2023-04-26T15:27:41.131Z,8.52
2023-04-26T15:30:10.646Z,8.53
2023-04-26T15:32:39.336Z,8.57
2023-04-26T15:35:08.894Z,8.59
2023-04-26T15:37:37.971Z,8.54
2023-04-26T15:40:09.959Z,8.53
2023-04-26T15:42:39.285Z,8.53
2023-04-26T15:45:10.223Z,8.52
2023-04-26T15:47:39.153Z,8.48
2023-04-26T15:50:09.225Z,8.45
2023-04-26T15:52:39.457Z,8.42
2023-04-26T15:55:10.065Z,8.41
2023-04-26T15:57:42.395Z,8.40
2023-04-26T16:00:13.917Z,8.35
2023-04-26T16:02:43.917Z,8.32
2023-04-26T16:05:12.858Z,8.30
2023-04-26T16:07:41.396Z,8.29
2023-04-26T16:10:11.092Z,8.23
2023-04-26T16:12:41.118Z,8.21
2023-04-26T16:15:11.032Z,8.18
2023-04-26T16:17:39.542Z,8.15
2023-04-26T16:20:09.917Z,8.12
2023-04-26T16:22:38.404Z,8.08
2023-04-26T16:25:08.973Z,8.07
2023-04-26T16:27:37.634Z,8.07
2023-04-26T16:30:08.172Z,8.07
2023-04-26T16:32:36.485Z,8.04
2023-04-26T16:35:05.873Z,8.00
2023-04-26T16:37:34.313Z,7.98
2023-04-26T16:40:04.516Z,7.95
2023-04-26T16:42:32.854Z,7.95
2023-04-26T16:45:01.565Z,7.93
2023-04-26T16:47:29.897Z,7.93
2023-04-26T16:49:58.233Z,7.96
2023-04-26T16:52:26.602Z,7.97
2023-04-26T16:54:55.023Z,7.98
2023-04-26T16:57:24.245Z,8.00
2023-04-26T16:59:53.069Z,7.99
2023-04-26T17:02:24.100Z,7.99
2023-04-26T17:04:52.540Z,7.99
2023-04-26T17:07:21.713Z,7.97
2023-04-26T17:09:54.463Z,7.97
2023-04-26T17:12:23.330Z,7.97
2023-04-26T17:14:52.162Z,7.98
2023-04-26T17:17:20.366Z,7.98
2023-04-26T17:19:48.934Z,7.99
2023-04-26T17:22:17.416Z,8.01
2023-04-26T17:24:45.723Z,8.05
2023-04-26T17:27:14.733Z,8.09
2023-04-26T17:29:44.493Z,8.09
2023-04-26T17:32:12.830Z,8.08
2023-04-26T17:34:42.640Z,8.05
2023-04-26T17:37:11.013Z,8.01
2023-04-26T17:39:39.238Z,7.97
2023-04-26T17:42:08.145Z,7.94
2023-04-26T17:44:36.448Z,7.94
2023-04-26T17:47:05.491Z,7.91
2023-04-26T17:49:34.025Z,7.91
2023-04-26T17:52:02.312Z,7.88
2023-04-26T17:54:30.649Z,7.87
2023-04-26T17:56:59.338Z,7.87
2023-04-26T17:59:27.731Z,7.88
2023-04-26T18:01:56.031Z,7.88
2023-04-26T18:04:24.797Z,7.87
2023-04-26T18:06:53.521Z,7.86
2023-04-26T18:09:21.893Z,7.86
2023-04-26T18:11:51.195Z,7.86
2023-04-26T18:14:19.464Z,7.85
2023-04-26T18:16:48.086Z,7.84
2023-04-26T18:19:16.774Z,7.83
2023-04-26T18:21:45.434Z,7.82
2023-04-26T18:24:13.689Z,7.82
2023-04-26T18:26:43.492Z,7.83
2023-04-26T18:29:11.930Z,7.84
2023-04-26T18:31:40.252Z,7.83
2023-04-26T18:34:11.413Z,7.84
2023-04-26T18:36:39.729Z,7.83
2023-04-26T18:39:08.052Z,7.83
2023-04-26T18:41:36.602Z,7.81
2023-04-26T18:44:09.961Z,7.82
2023-04-26T18:46:38.756Z,7.81
2023-04-26T18:49:07.188Z,7.78
2023-04-26T18:51:35.628Z,7.76
2023-04-26T18:54:04.874Z,7.75
2023-04-26T18:56:33.633Z,7.74
2023-04-26T18:59:01.980Z,7.72
2023-04-26T19:01:30.825Z,7.72
2023-04-26T19:03:59.698Z,7.71
2023-04-26T19:06:28.263Z,7.70
2023-04-26T19:08:57.539Z,7.70
2023-04-26T19:11:26.253Z,7.69
2023-04-26T19:13:54.885Z,7.68
2023-04-26T19:16:23.864Z,7.67
2023-04-26T19:18:52.692Z,7.65
2023-04-26T19:21:21.098Z,7.63
2023-04-26T19:23:49.672Z,7.62
2023-04-26T19:26:18.046Z,7.60
2023-04-26T19:28:46.381Z,7.57
2023-04-26T19:31:14.833Z,7.55
2023-04-26T19:33:45.315Z,7.52
2023-04-26T19:36:13.729Z,7.51
2023-04-26T19:38:42.596Z,7.49
2023-04-26T19:41:10.891Z,7.48
2023-04-26T19:43:39.126Z,7.47
2023-04-26T19:46:12.318Z,7.45
2023-04-26T19:48:40.765Z,7.45
2023-04-26T19:51:13.629Z,7.45
2023-04-26T19:53:42.043Z,7.44
2023-04-26T19:56:10.709Z,7.42
2023-04-26T19:58:39.311Z,7.41
2023-04-26T20:01:07.663Z,7.40
2023-04-26T20:03:38.608Z,7.38
2023-04-26T20:06:08.962Z,7.36
2023-04-26T20:08:37.569Z,7.33
2023-04-26T20:11:06.113Z,7.32
2023-04-26T20:13:35.568Z,7.31
2023-04-26T20:16:04.386Z,7.29
2023-04-26T20:18:32.716Z,7.27
2023-04-26T20:21:01.183Z,7.25
2023-04-26T20:23:30.476Z,7.23
2023-04-26T20:25:58.844Z,7.21
2023-04-26T20:28:27.175Z,7.18
2023-04-26T20:30:55.928Z,7.15
2023-04-26T20:33:24.570Z,7.12
2023-04-26T20:35:53.122Z,7.08
2023-04-26T20:38:21.482Z,7.05
2023-04-26T20:40:50.104Z,7.02
2023-04-26T20:43:18.488Z,6.98
2023-04-26T20:45:47.160Z,6.94
2023-04-26T20:48:15.741Z,6.90
2023-04-26T20:50:44.070Z,6.85
2023-04-26T20:53:12.612Z,6.81
2023-04-26T20:55:41.005Z,6.79
2023-04-26T20:58:09.410Z,6.75
2023-04-26T21:00:37.888Z,6.72
2023-04-26T21:03:06.324Z,6.69
2023-04-26T21:05:35.339Z,6.67
2023-04-26T21:08:03.775Z,6.65
2023-04-26T21:10:32.669Z,6.63
2023-04-26T21:13:01.211Z,6.61
2023-04-26T21:15:29.619Z,6.60
2023-04-26T21:17:58.311Z,6.58
2023-04-26T21:20:26.819Z,6.57
2023-04-26T21:22:55.221Z,6.55
2023-04-26T21:25:23.567Z,6.54
2023-04-26T21:27:52.152Z,6.54
2023-04-26T21:30:21.228Z,6.53
2023-04-26T21:35:50.847Z,6.52
2023-04-26T21:38:19.861Z,6.52
2023-04-26T21:40:48.338Z,6.51
2023-04-26T21:43:19.422Z,6.50
2023-04-26T21:45:49.417Z,6.50
2023-04-26T21:48:17.828Z,6.48
2023-04-26T21:50:49.276Z,6.45
2023-04-26T21:53:18.171Z,6.43
2023-04-26T21:55:52.390Z,6.40
2023-04-26T21:58:19.984Z,6.38
2023-04-26T22:00:48.625Z,6.35
2023-04-26T22:03:17.510Z,6.31
2023-04-26T22:05:46.323Z,6.26
2023-04-26T22:08:14.744Z,6.22
2023-04-26T22:10:43.288Z,6.18
2023-04-26T22:13:11.895Z,6.14
2023-04-26T22:15:40.419Z,6.09
2023-04-26T22:18:09.030Z,6.06
2023-04-26T22:20:37.871Z,6.01
2023-04-26T22:23:06.548Z,5.96
2023-04-26T22:25:35.394Z,5.92
2023-04-26T22:28:03.818Z,5.88
2023-04-26T22:30:32.611Z,5.84
2023-04-26T22:33:01.249Z,5.81
2023-04-26T22:35:29.893Z,5.76
2023-04-26T22:37:58.357Z,5.71
2023-04-26T22:40:27.097Z,5.67
2023-04-26T22:42:55.840Z,5.64
2023-04-26T22:45:25.395Z,5.60
2023-04-26T22:47:53.982Z,5.57
2023-04-26T22:50:23.395Z,5.52
2023-04-26T22:52:52.063Z,5.47
2023-04-26T22:55:20.913Z,5.44
2023-04-26T22:57:49.304Z,5.42
2023-04-26T23:00:19.372Z,5.38
2023-04-26T23:02:49.980Z,5.35
2023-04-26T23:05:18.833Z,5.31
2023-04-26T23:07:47.492Z,5.27
2023-04-26T23:10:16.050Z,5.23
2023-04-26T23:12:44.606Z,5.20
2023-04-26T23:15:13.166Z,5.17
2023-04-26T23:17:42.056Z,5.12
2023-04-26T23:20:11.704Z,5.10
2023-04-26T23:22:40.951Z,5.08
2023-04-26T23:25:11.233Z,5.05
2023-04-26T23:27:40.251Z,5.03
2023-04-26T23:30:10.264Z,4.99
2023-04-26T23:32:39.134Z,4.97
2023-04-26T23:35:09.135Z,4.93
2023-04-26T23:37:37.681Z,4.89
2023-04-26T23:40:09.568Z,4.87
2023-04-26T23:42:38.060Z,4.84
2023-04-26T23:45:09.185Z,4.81
2023-04-26T23:47:38.419Z,4.79
2023-04-26T23:50:09.169Z,4.76
2023-04-26T23:52:37.650Z,4.73
2023-04-26T23:55:07.864Z,4.70
2023-04-26T23:57:36.667Z,4.68
